Time;durP1;ratioP1;P1;durP2;ratioP2;P2;SDS_P1;SDS_P2;PMS_P1;PMS_P2;Temp;Humidity;BMP_temperature;BMP_pressure;BME280_temperature;BME280_humidity;BME280_pressure;Samples;Min_cycle;Max_cycle;Signal;HPM_P1;HPM_P2
2021/11/14 00:02:07;;;;;;;24.00;17.25;;;7.50;99.90;;;;;;1932478;73;21047;-74
2021/11/14 00:04:33;;;;;;;21.60;15.18;;;7.50;99.90;;;;;;1914102;73;21140;-74
2021/11/14 00:06:59;;;;;;;21.68;15.30;;;7.40;99.90;;;;;;1931491;73;21164;-74
2021/11/14 00:09:29;;;;;;;23.60;15.55;;;7.60;99.90;;;;;;1924938;73;21269;-74
2021/11/14 00:11:53;;;;;;;23.38;15.50;;;7.70;99.90;;;;;;1932240;73;21422;-74
2021/11/14 00:14:19;;;;;;;20.97;15.32;;;7.70;99.90;;;;;;1930550;72;21571;-74
2021/11/14 00:16:46;;;;;;;22.95;15.43;;;7.70;99.90;;;;;;1933164;73;21577;-75
2021/11/14 00:19:12;;;;;;;21.55;15.95;;;7.70;99.90;;;;;;1935098;73;21439;-76
2021/11/14 00:21:41;;;;;;;22.20;15.85;;;7.70;99.90;;;;;;1926760;73;21043;-75
2021/11/14 00:24:06;;;;;;;23.52;16.37;;;7.70;99.90;;;;;;1943052;73;21078;-75
2021/11/14 00:26:32;;;;;;;21.12;14.85;;;7.70;99.90;;;;;;1925623;73;21151;-76
2021/11/14 00:28:58;;;;;;;21.05;15.35;;;7.60;99.90;;;;;;1924547;73;21147;-75
2021/11/14 00:31:24;;;;;;;22.80;17.12;;;7.60;99.90;;;;;;1908569;73;21081;-75
2021/11/14 00:33:51;;;;;;;19.85;14.65;;;7.60;99.90;;;;;;1934705;72;21078;-73
2021/11/14 00:36:17;;;;;;;22.17;16.30;;;7.60;99.90;;;;;;1924462;73;21147;-75
2021/11/14 00:38:43;;;;;;;22.77;16.10;;;7.50;99.90;;;;;;1933620;72;21188;-75
2021/11/14 00:41:09;;;;;;;24.80;16.40;;;7.50;99.90;;;;;;1911051;73;21083;-74
2021/11/14 00:43:35;;;;;;;22.00;15.83;;;7.50;99.90;;;;;;1919124;73;21204;-74
2021/11/14 00:46:01;;;;;;;25.45;16.40;;;7.40;99.90;;;;;;1936159;72;21164;-74
2021/11/14 00:48:27;;;;;;;28.17;16.75;;;7.50;99.90;;;;;;1933343;73;21482;-74
2021/11/14 00:50:53;;;;;;;22.73;16.65;;;7.50;99.90;;;;;;1929189;73;21427;-74
2021/11/14 00:53:20;;;;;;;22.35;16.10;;;7.50;99.90;;;;;;1918307;73;21548;-74
2021/11/14 00:55:46;;;;;;;22.52;15.83;;;7.50;99.90;;;;;;1917437;73;21473;-74
2021/11/14 00:58:12;;;;;;;27.70;16.57;;;7.50;99.90;;;;;;1922866;72;21487;-74
2021/11/14 01:00:38;;;;;;;23.95;16.20;;;7.50;99.90;;;;;;1934406;73;21169;-74
2021/11/14 01:03:04;;;;;;;21.70;16.52;;;7.50;99.90;;;;;;1924276;73;21079;-73
2021/11/14 01:05:30;;;;;;;22.13;16.17;;;7.50;99.90;;;;;;1925560;72;21140;-74
2021/11/14 01:07:56;;;;;;;25.97;15.78;;;7.50;99.90;;;;;;1926019;72;21265;-74
2021/11/14 01:10:23;;;;;;;22.10;15.95;;;7.40;99.90;;;;;;1910271;73;21047;-74
2021/11/14 01:12:49;;;;;;;24.82;16.45;;;7.50;99.90;;;;;;1917047;73;21177;-74
2021/11/14 01:15:15;;;;;;;24.20;16.45;;;7.50;99.90;;;;;;1924871;73;21185;-73
2021/11/14 01:17:41;;;;;;;23.73;17.15;;;7.50;99.90;;;;;;1915939;73;21498;-74
2021/11/14 01:20:07;;;;;;;22.42;16.55;;;7.50;99.90;;;;;;1918964;73;21075;-73
2021/11/14 01:22:33;;;;;;;24.92;16.07;;;7.50;99.90;;;;;;1904991;74;21153;-74
2021/11/14 01:25:00;;;;;;;23.18;15.60;;;7.50;99.90;;;;;;1927103;73;21131;-74
2021/11/14 01:27:26;;;;;;;28.77;17.48;;;7.50;99.90;;;;;;1920008;73;21140;-74
2021/11/14 01:29:53;;;;;;;20.48;15.43;;;7.50;99.90;;;;;;1926140;73;21585;-74
2021/11/14 01:32:19;;;;;;;19.82;14.33;;;7.50;99.90;;;;;;1918056;72;21077;-74
2021/11/14 01:34:45;;;;;;;21.10;14.55;;;7.50;99.90;;;;;;1922085;73;21069;-74
2021/11/14 01:37:11;;;;;;;18.02;14.87;;;7.60;99.90;;;;;;1901483;73;21031;-74
2021/11/14 01:39:37;;;;;;;20.60;15.03;;;7.70;99.90;;;;;;1943060;72;21073;-75
2021/11/14 01:42:03;;;;;;;19.85;14.65;;;7.60;99.90;;;;;;1928025;73;21079;-74
2021/11/14 01:44:29;;;;;;;23.35;15.35;;;7.50;99.90;;;;;;1913744;72;21152;-74
2021/11/14 01:46:55;;;;;;;23.38;16.15;;;7.50;99.90;;;;;;1922713;73;21043;-75
2021/11/14 01:49:21;;;;;;;26.55;16.20;;;7.60;99.90;;;;;;1911820;74;21225;-74
2021/11/14 01:51:48;;;;;;;24.47;16.40;;;7.50;99.90;;;;;;1925513;72;21074;-74
2021/11/14 01:54:19;;;;;;;20.97;15.25;;;7.50;99.90;;;;;;1920204;74;21074;-75
2021/11/14 01:56:41;;;;;;;20.57;14.63;;;7.50;99.90;;;;;;1937786;73;21156;-75
2021/11/14 01:59:08;;;;;;;24.35;15.13;;;7.60;99.90;;;;;;1935741;73;21065;-74
2021/11/14 02:01:34;;;;;;;22.70;14.80;;;7.60;99.90;;;;;;1937846;73;21148;-74
2021/11/14 02:04:02;;;;;;;27.27;15.65;;;7.60;99.90;;;;;;1928531;73;21070;-75
2021/11/14 02:06:28;;;;;;;19.37;14.25;;;7.60;99.90;;;;;;1901370;73;21973;-75
2021/11/14 02:08:54;;;;;;;22.50;14.87;;;7.60;99.90;;;;;;1929348;73;21553;-73
2021/11/14 02:11:20;;;;;;;26.42;15.50;;;7.60;99.90;;;;;;1916823;72;21485;-74
2021/11/14 02:13:48;;;;;;;22.35;14.70;;;7.60;99.90;;;;;;1922519;73;21066;-73
2021/11/14 02:16:14;;;;;;;20.95;15.18;;;7.50;99.90;;;;;;1930381;72;21100;-74
2021/11/14 02:18:40;;;;;;;16.87;14.18;;;7.60;99.90;;;;;;1920691;73;21151;-75
2021/11/14 02:21:06;;;;;;;22.37;15.35;;;7.70;99.90;;;;;;1928489;73;21583;-74
2021/11/14 02:23:33;;;;;;;19.87;14.75;;;7.80;99.90;;;;;;1916146;73;21423;-75
2021/11/14 02:25:59;;;;;;;22.67;14.38;;;7.80;99.90;;;;;;1921811;73;21047;-75
2021/11/14 02:28:25;;;;;;;21.00;14.75;;;7.70;99.90;;;;;;1920612;73;21136;-74
2021/11/14 02:30:51;;;;;;;23.57;15.78;;;7.70;99.90;;;;;;1921123;73;21153;-75
2021/11/14 02:33:18;;;;;;;19.10;14.25;;;7.70;99.90;;;;;;1935783;72;21079;-75
2021/11/14 02:35:44;;;;;;;20.85;14.40;;;7.70;99.90;;;;;;1910485;73;21103;-74
2021/11/14 02:38:10;;;;;;;23.45;15.40;;;7.70;99.90;;;;;;1916442;73;21066;-74
2021/11/14 02:40:36;;;;;;;19.70;15.13;;;7.60;99.90;;;;;;1916468;73;21502;-74
2021/11/14 02:43:02;;;;;;;18.95;14.60;;;7.50;99.90;;;;;;1944060;73;21616;-75
2021/11/14 02:45:28;;;;;;;20.75;15.08;;;7.60;99.90;;;;;;1916836;74;21070;-74
2021/11/14 02:47:54;;;;;;;20.77;15.48;;;7.70;99.90;;;;;;1921229;73;21039;-75
2021/11/14 02:50:21;;;;;;;19.37;14.75;;;7.70;99.90;;;;;;1926441;73;21144;-75
2021/11/14 02:52:47;;;;;;;23.15;15.25;;;7.80;99.90;;;;;;1928252;73;21074;-75
2021/11/14 02:55:13;;;;;;;17.50;14.55;;;7.80;99.90;;;;;;1927320;72;21074;-75
2021/11/14 02:57:39;;;;;;;19.32;14.15;;;7.80;99.90;;;;;;1927601;73;21565;-75
2021/11/14 03:00:05;;;;;;;19.45;14.83;;;7.70;99.90;;;;;;1924513;73;21473;-75
2021/11/14 03:02:32;;;;;;;20.57;15.18;;;7.60;99.90;;;;;;1924707;73;21551;-74
2021/11/14 03:04:58;;;;;;;25.27;16.02;;;7.60;99.90;;;;;;1919467;73;21201;-75
2021/11/14 03:07:24;;;;;;;22.42;15.70;;;7.70;99.90;;;;;;1927797;73;21058;-76
2021/11/14 03:09:50;;;;;;;21.82;15.18;;;7.70;99.90;;;;;;1928119;72;21143;-76
2021/11/14 03:12:16;;;;;;;24.30;15.85;;;7.80;99.90;;;;;;1917913;73;21075;-75
2021/11/14 03:14:42;;;;;;;21.25;15.93;;;7.80;99.90;;;;;;1938479;73;21128;-75
2021/11/14 03:17:08;;;;;;;22.42;16.70;;;7.90;99.90;;;;;;1913218;73;21135;-75
2021/11/14 03:19:35;;;;;;;23.00;16.20;;;7.90;99.90;;;;;;1929256;73;21047;-75
2021/11/14 03:22:01;;;;;;;23.98;15.45;;;7.90;99.90;;;;;;1932504;73;21066;-75
2021/11/14 03:24:27;;;;;;;23.25;16.65;;;7.90;99.90;;;;;;1918022;73;21082;-76
2021/11/14 03:26:53;;;;;;;21.25;15.15;;;7.90;99.90;;;;;;1918365;73;21073;-75
2021/11/14 03:29:19;;;;;;;19.73;15.45;;;7.80;99.90;;;;;;1934603;73;21047;-75
2021/11/14 03:31:47;;;;;;;21.20;15.60;;;7.80;99.90;;;;;;1927178;73;21481;-75
2021/11/14 03:34:13;;;;;;;22.65;16.30;;;7.90;99.90;;;;;;1922278;73;21191;-76
2021/11/14 03:36:39;;;;;;;24.05;16.07;;;7.90;99.90;;;;;;1915963;73;21062;-75
2021/11/14 03:39:05;;;;;;;22.87;16.42;;;7.80;99.90;;;;;;1909139;73;21048;-75
2021/11/14 03:41:31;;;;;;;21.75;15.05;;;7.80;99.90;;;;;;1923150;73;21139;-74
2021/11/14 03:43:57;;;;;;;21.00;15.60;;;7.80;99.90;;;;;;1915972;72;22512;-75
2021/11/14 03:46:24;;;;;;;22.20;15.65;;;7.80;99.90;;;;;;1930954;73;21133;-74
2021/11/14 03:48:50;;;;;;;22.67;14.58;;;7.80;99.90;;;;;;1910259;73;21077;-73
2021/11/14 03:51:16;;;;;;;22.35;15.60;;;7.90;99.90;;;;;;1910157;73;21039;-74
2021/11/14 03:53:42;;;;;;;19.12;14.60;;;7.80;99.90;;;;;;1934009;73;21082;-74
2021/11/14 03:56:08;;;;;;;26.48;15.40;;;7.80;99.90;;;;;;1941721;72;21074;-74
2021/11/14 03:58:34;;;;;;;18.27;13.95;;;7.80;99.90;;;;;;1927811;74;21152;-74
2021/11/14 04:01:00;;;;;;;20.17;14.20;;;7.80;99.90;;;;;;1934541;73;21209;-75
2021/11/14 04:03:26;;;;;;;20.75;14.13;;;7.80;99.90;;;;;;1925179;72;21249;-75
2021/11/14 04:05:53;;;;;;;17.37;12.73;;;7.80;99.90;;;;;;1922646;73;21062;-75
2021/11/14 04:08:19;;;;;;;19.40;13.75;;;7.70;99.90;;;;;;1912550;73;21070;-74
2021/11/14 04:10:45;;;;;;;21.20;14.58;;;7.70;99.90;;;;;;1926319;73;21096;-74
2021/11/14 04:13:11;;;;;;;22.48;15.18;;;7.70;99.90;;;;;;1920296;72;21143;-75
2021/11/14 04:15:37;;;;;;;20.88;15.53;;;7.60;99.90;;;;;;1933661;72;21138;-74
2021/11/14 04:18:03;;;;;;;27.50;15.68;;;7.60;99.90;;;;;;1940117;73;21070;-75
2021/11/14 04:20:29;;;;;;;21.37;14.47;;;7.60;99.90;;;;;;1917868;73;21079;-75
2021/11/14 04:22:55;;;;;;;18.57;14.00;;;7.60;99.90;;;;;;1921531;73;21066;-75
2021/11/14 04:25:22;;;;;;;21.40;13.98;;;7.70;99.90;;;;;;1925981;73;21085;-74
2021/11/14 04:27:48;;;;;;;24.27;14.38;;;7.60;99.90;;;;;;1925427;73;21082;-75
2021/11/14 04:30:14;;;;;;;19.10;13.60;;;7.60;99.90;;;;;;1935136;73;21164;-75
2021/11/14 04:32:40;;;;;;;19.65;14.95;;;7.60;99.90;;;;;;1922561;73;21132;-74
2021/11/14 04:35:06;;;;;;;23.70;14.98;;;7.60;99.90;;;;;;1913434;73;21489;-75
2021/11/14 04:37:32;;;;;;;21.68;14.47;;;7.60;99.90;;;;;;1913480;72;21461;-74
2021/11/14 04:39:58;;;;;;;20.35;15.65;;;7.50;99.90;;;;;;1918556;73;21491;-75
2021/11/14 04:42:24;;;;;;;21.00;14.50;;;7.40;99.90;;;;;;1921776;73;21537;-75
2021/11/14 04:44:51;;;;;;;21.65;14.75;;;7.50;99.90;;;;;;1941675;73;21147;-75
2021/11/14 04:47:17;;;;;;;18.40;14.33;;;7.50;99.90;;;;;;1939658;73;21148;-74
2021/11/14 04:49:43;;;;;;;18.62;14.03;;;7.60;99.90;;;;;;1943451;73;21145;-75
2021/11/14 04:52:09;;;;;;;19.12;14.10;;;7.50;99.90;;;;;;1936691;72;21145;-74
2021/11/14 04:54:35;;;;;;;17.98;14.45;;;7.60;99.90;;;;;;1925476;73;21066;-75
2021/11/14 04:57:01;;;;;;;21.10;14.47;;;7.50;99.90;;;;;;1930214;73;21062;-74
2021/11/14 04:59:27;;;;;;;22.93;15.23;;;7.60;99.90;;;;;;1933759;73;21121;-74
2021/11/14 05:01:53;;;;;;;20.30;14.00;;;7.60;99.90;;;;;;1921802;73;21191;-73
2021/11/14 05:04:20;;;;;;;19.85;14.73;;;7.70;99.90;;;;;;1936129;73;21086;-73
2021/11/14 05:06:46;;;;;;;20.05;14.75;;;7.70;99.90;;;;;;1914474;73;21070;-73
2021/11/14 05:09:12;;;;;;;19.98;14.53;;;7.70;99.90;;;;;;1916998;73;21161;-73
2021/11/14 05:11:38;;;;;;;20.48;14.95;;;7.70;99.90;;;;;;1924704;72;21164;-74
2021/11/14 05:14:04;;;;;;;20.75;14.83;;;7.70;99.90;;;;;;1936198;73;21502;-74
2021/11/14 05:16:30;;;;;;;24.65;15.05;;;7.70;99.90;;;;;;1923211;72;21450;-73
2021/11/14 05:18:56;;;;;;;23.98;13.93;;;7.60;99.90;;;;;;1928837;73;21440;-74
2021/11/14 05:21:22;;;;;;;20.68;14.90;;;7.60;99.90;;;;;;1947220;73;21738;-74
2021/11/14 05:23:49;;;;;;;22.30;14.90;;;7.50;99.90;;;;;;1942192;72;21556;-73
2021/11/14 05:26:15;;;;;;;23.10;15.18;;;7.50;99.90;;;;;;1938323;72;21449;-74
2021/11/14 05:28:41;;;;;;;20.17;14.95;;;7.50;99.90;;;;;;1945261;73;21071;-74
2021/11/14 05:31:07;;;;;;;17.82;14.23;;;7.60;99.90;;;;;;1934106;73;21074;-74
2021/11/14 05:33:33;;;;;;;18.40;13.38;;;7.70;99.90;;;;;;1924382;74;21079;-73
2021/11/14 05:35:59;;;;;;;20.75;15.13;;;7.60;99.90;;;;;;1928448;73;21073;-74
2021/11/14 05:38:25;;;;;;;19.37;14.53;;;7.50;99.90;;;;;;1948022;73;21144;-74
2021/11/14 05:40:51;;;;;;;18.35;14.53;;;7.50;99.90;;;;;;1952256;73;21074;-73
2021/11/14 05:43:18;;;;;;;21.82;14.85;;;7.60;99.90;;;;;;1949879;73;21071;-73
2021/11/14 05:45:44;;;;;;;19.50;14.95;;;7.60;99.90;;;;;;1935730;73;21059;-73
2021/11/14 05:48:10;;;;;;;18.07;14.68;;;7.60;99.90;;;;;;1938056;72;21076;-74
2021/11/14 05:50:36;;;;;;;20.77;14.10;;;7.60;99.90;;;;;;1951227;72;21139;-74
2021/11/14 05:53:02;;;;;;;17.65;13.28;;;7.50;99.90;;;;;;1931609;74;21075;-75
2021/11/14 05:55:28;;;;;;;18.32;13.68;;;7.40;99.90;;;;;;1937321;73;21075;-74
2021/11/14 05:57:57;;;;;;;17.45;13.30;;;7.20;99.90;;;;;;1942258;72;21187;-75
2021/11/14 06:00:42;;;;;;;23.32;15.03;;;7.30;99.90;;;;;;1943740;72;21204;-75
2021/11/14 06:03:08;;;;;;;20.68;14.60;;;7.20;99.90;;;;;;1922267;73;21161;-76
2021/11/14 06:05:34;;;;;;;20.70;14.70;;;7.30;99.90;;;;;;1928466;73;21160;-76
2021/11/14 06:07:57;;;;;;;19.12;14.38;;;7.20;99.90;;;;;;1944727;72;21471;-76
2021/11/14 06:10:24;;;;;;;19.30;14.83;;;7.20;99.90;;;;;;1944945;73;21486;-75
2021/11/14 06:12:50;;;;;;;21.73;14.68;;;7.10;99.90;;;;;;1938518;73;21470;-76
2021/11/14 06:15:16;;;;;;;20.12;15.15;;;7.20;99.90;;;;;;1953404;73;21495;-75
2021/11/14 06:17:42;;;;;;;20.68;14.00;;;7.30;99.90;;;;;;1929434;74;21463;-76
2021/11/14 06:20:08;;;;;;;20.55;14.60;;;7.30;99.90;;;;;;1939554;73;21164;-75
2021/11/14 06:22:34;;;;;;;20.52;14.87;;;7.30;99.90;;;;;;1929313;73;21086;-75
2021/11/14 06:25:00;;;;;;;19.77;14.78;;;7.30;99.90;;;;;;1947255;72;21075;-75
2021/11/14 06:27:26;;;;;;;26.55;16.42;;;7.20;99.90;;;;;;1950076;72;21136;-75
2021/11/14 06:29:53;;;;;;;26.48;15.80;;;7.40;99.90;;;;;;1944673;73;21150;-76
2021/11/14 06:32:19;;;;;;;24.40;16.70;;;7.40;99.90;;;;;;1937894;72;21141;-75
2021/11/14 06:34:45;;;;;;;21.70;16.93;;;7.50;99.90;;;;;;1945128;72;21208;-75
2021/11/14 06:37:12;;;;;;;22.15;15.58;;;7.40;99.90;;;;;;1940139;72;21225;-75
2021/11/14 06:39:38;;;;;;;22.32;16.05;;;7.40;99.90;;;;;;1946861;72;21156;-75
2021/11/14 06:42:05;;;;;;;24.65;16.52;;;7.40;99.90;;;;;;1937973;74;21040;-75
2021/11/14 06:44:31;;;;;;;21.48;15.13;;;7.40;99.90;;;;;;1927064;73;21149;-75
2021/11/14 06:46:57;;;;;;;21.05;15.85;;;7.30;99.90;;;;;;1939558;72;21071;-76
2021/11/14 06:49:23;;;;;;;23.05;14.43;;;7.40;99.90;;;;;;1924563;74;21083;-74
2021/11/14 06:51:49;;;;;;;24.05;16.52;;;7.40;99.90;;;;;;1932990;73;21153;-75
2021/11/14 06:54:15;;;;;;;22.80;15.00;;;7.50;99.90;;;;;;1938558;73;21178;-76
2021/11/14 06:56:41;;;;;;;21.75;15.00;;;7.50;99.90;;;;;;1932544;72;21079;-76
2021/11/14 06:59:07;;;;;;;21.75;15.55;;;7.40;99.90;;;;;;1927352;73;21070;-83
2021/11/14 07:01:34;;;;;;;21.52;15.58;;;7.30;99.90;;;;;;1938990;73;21078;-75
2021/11/14 07:04:00;;;;;;;23.67;16.57;;;7.30;99.90;;;;;;1936256;73;21135;-74
2021/11/14 07:06:26;;;;;;;26.93;16.07;;;7.40;99.90;;;;;;1941978;72;21082;-75
2021/11/14 07:08:52;;;;;;;28.60;16.25;;;7.40;99.90;;;;;;1941012;72;21587;-75
2021/11/14 07:11:18;;;;;;;25.45;16.62;;;7.30;99.90;;;;;;1940690;73;21140;-75
2021/11/14 07:13:44;;;;;;;24.00;15.72;;;7.30;99.90;;;;;;1929412;73;21079;-76
2021/11/14 07:16:10;;;;;;;22.50;16.20;;;7.30;99.90;;;;;;1938794;73;21075;-76
2021/11/14 07:18:37;;;;;;;22.40;16.32;;;7.30;99.90;;;;;;1945143;73;21209;-75
2021/11/14 07:21:03;;;;;;;25.30;15.65;;;7.30;99.90;;;;;;1939655;72;21047;-77
2021/11/14 07:23:29;;;;;;;26.68;15.90;;;7.20;99.90;;;;;;1944546;73;21072;-83
2021/11/14 07:25:55;;;;;;;28.23;17.95;;;7.10;99.90;;;;;;1915539;73;21186;-80
2021/11/14 07:28:21;;;;;;;26.48;16.93;;;7.20;99.90;;;;;;1925759;72;21070;-81
2021/11/14 07:30:47;;;;;;;27.27;17.25;;;7.10;99.90;;;;;;1931280;73;21047;-82
2021/11/14 07:33:15;;;;;;;29.70;18.70;;;7.10;99.90;;;;;;1942021;73;21074;-79
2021/11/14 07:35:41;;;;;;;31.97;18.37;;;7.10;99.90;;;;;;1939499;73;21237;-78
2021/11/14 07:38:07;;;;;;;35.92;19.90;;;7.20;99.90;;;;;;1944556;72;21063;-78
2021/11/14 07:40:33;;;;;;;27.58;19.32;;;7.20;99.90;;;;;;1937975;73;21053;-78
2021/11/14 07:42:59;;;;;;;29.02;19.05;;;7.30;99.90;;;;;;1943812;74;21467;-78
2021/11/14 07:45:25;;;;;;;32.35;20.30;;;7.30;99.90;;;;;;1929494;74;21181;-78
2021/11/14 07:47:52;;;;;;;37.08;21.48;;;7.30;99.90;;;;;;1940245;74;21136;-79
2021/11/14 07:50:18;;;;;;;30.92;20.20;;;7.30;99.90;;;;;;1930163;73;21076;-80
2021/11/14 07:52:44;;;;;;;27.60;19.52;;;7.40;99.90;;;;;;1940650;73;21262;-83
2021/11/14 07:55:10;;;;;;;35.10;20.48;;;7.60;99.90;;;;;;1938019;72;21066;-84
2021/11/14 07:57:38;;;;;;;30.97;20.15;;;7.70;99.90;;;;;;1936245;73;21082;-86
2021/11/14 08:00:04;;;;;;;29.10;19.70;;;7.70;99.90;;;;;;1935364;72;21066;-86
2021/11/14 08:02:30;;;;;;;30.15;19.12;;;7.90;99.90;;;;;;1944787;72;21292;-87
2021/11/14 08:04:56;;;;;;;29.95;19.95;;;7.90;99.90;;;;;;1940087;73;21047;-85
2021/11/14 08:07:23;;;;;;;33.95;20.45;;;7.90;99.90;;;;;;1925432;73;21046;-85
2021/11/14 08:09:49;;;;;;;29.18;20.48;;;8.10;99.90;;;;;;1934751;72;21153;-85
2021/11/14 08:12:15;;;;;;;31.95;20.45;;;8.10;99.90;;;;;;1937648;72;21073;-84
2021/11/14 08:14:41;;;;;;;31.40;20.23;;;8.10;99.90;;;;;;1947401;72;21144;-82
2021/11/14 08:17:07;;;;;;;26.93;19.60;;;8.20;99.90;;;;;;1931182;73;21051;-81
2021/11/14 08:19:33;;;;;;;29.05;19.00;;;8.30;99.90;;;;;;1933989;73;21205;-79
2021/11/14 08:21:59;;;;;;;24.90;18.60;;;8.40;99.90;;;;;;1940331;72;21074;-78
2021/11/14 08:24:25;;;;;;;26.00;18.27;;;8.40;99.90;;;;;;1945191;72;21070;-78
2021/11/14 08:26:52;;;;;;;25.12;17.67;;;8.40;99.90;;;;;;1939296;73;21078;-79
2021/11/14 08:29:18;;;;;;;25.35;18.05;;;8.50;99.90;;;;;;1934379;74;21075;-79
2021/11/14 08:31:44;;;;;;;26.90;18.73;;;8.50;99.90;;;;;;1939949;72;21118;-79
2021/11/14 08:34:10;;;;;;;22.98;16.62;;;8.60;99.90;;;;;;1941831;73;21071;-79
2021/11/14 08:36:36;;;;;;;21.00;14.68;;;8.60;99.90;;;;;;1942937;72;21481;-78
2021/11/14 08:39:02;;;;;;;27.20;18.40;;;8.60;99.90;;;;;;1948593;72;21457;-79
2021/11/14 08:41:29;;;;;;;21.07;14.65;;;8.70;99.90;;;;;;1935685;73;21078;-78
2021/11/14 08:43:55;;;;;;;24.20;16.27;;;8.80;99.90;;;;;;1951974;73;21070;-79
2021/11/14 08:46:22;;;;;;;20.70;15.80;;;9.00;99.90;;;;;;1945250;73;21062;-78
2021/11/14 08:48:48;;;;;;;22.02;15.03;;;8.90;99.90;;;;;;1942094;74;21156;-79
2021/11/14 08:51:14;;;;;;;22.32;15.78;;;8.90;99.90;;;;;;1944925;72;21214;-79
2021/11/14 08:53:41;;;;;;;24.37;16.02;;;8.90;99.90;;;;;;1940542;73;21447;-79
2021/11/14 08:56:08;;;;;;;23.95;15.93;;;9.00;99.90;;;;;;1943076;73;21489;-79
2021/11/14 08:58:34;;;;;;;19.55;15.68;;;9.10;99.90;;;;;;1933462;72;21211;-79
2021/11/14 09:01:00;;;;;;;21.23;15.83;;;9.10;99.90;;;;;;1944166;72;21040;-79
2021/11/14 09:03:26;;;;;;;20.92;16.07;;;9.20;99.90;;;;;;1944444;74;21196;-79
2021/11/14 09:05:53;;;;;;;20.17;15.38;;;9.30;99.90;;;;;;1935452;73;21214;-79
2021/11/14 09:08:19;;;;;;;17.65;13.78;;;9.30;99.90;;;;;;1944818;72;21136;-79
2021/11/14 09:10:45;;;;;;;27.70;14.40;;;9.30;99.90;;;;;;1937088;73;21122;-79
2021/11/14 09:13:13;;;;;;;24.52;16.15;;;9.30;99.90;;;;;;1914402;73;21046;-77
2021/11/14 09:15:39;;;;;;;22.55;16.02;;;9.30;99.90;;;;;;1934039;73;21666;-79
2021/11/14 09:18:05;;;;;;;20.72;13.65;;;9.30;99.90;;;;;;1923687;73;21559;-83
2021/11/14 09:20:31;;;;;;;21.30;14.10;;;9.50;99.90;;;;;;1889468;73;21479;-83
2021/11/14 09:22:58;;;;;;;19.32;13.40;;;9.60;99.90;;;;;;1932833;73;21189;-84
2021/11/14 09:25:24;;;;;;;20.15;13.35;;;9.70;99.90;;;;;;1927788;72;21125;-82
2021/11/14 09:27:50;;;;;;;19.77;14.50;;;9.80;99.90;;;;;;1905271;73;21062;-85
2021/11/14 09:30:17;;;;;;;31.02;15.10;;;9.90;99.90;;;;;;1935680;73;21140;-83
2021/11/14 09:32:43;;;;;;;23.70;15.75;;;9.80;99.90;;;;;;1928289;72;21156;-80
2021/11/14 09:35:09;;;;;;;24.45;16.07;;;9.60;99.90;;;;;;1923655;73;21135;-81
2021/11/14 09:37:35;;;;;;;25.02;16.97;;;9.70;99.90;;;;;;1922576;73;21149;-81
2021/11/14 09:40:03;;;;;;;24.65;17.25;;;9.80;99.90;;;;;;1941955;72;21136;-81
2021/11/14 09:42:30;;;;;;;30.23;17.15;;;9.90;99.90;;;;;;1931679;73;21111;-82
2021/11/14 09:44:56;;;;;;;28.67;18.00;;;10.00;99.90;;;;;;1925965;72;21081;-84
2021/11/14 09:47:22;;;;;;;29.70;17.90;;;10.00;99.90;;;;;;1926331;72;21156;-82
2021/11/14 09:49:48;;;;;;;24.37;17.37;;;10.20;99.90;;;;;;1922800;72;21082;-82
2021/11/14 09:52:14;;;;;;;29.27;17.70;;;10.10;99.90;;;;;;1910040;73;21566;-81
2021/11/14 09:54:40;;;;;;;31.70;17.62;;;10.20;99.90;;;;;;1928055;73;21150;-82
2021/11/14 09:57:07;;;;;;;30.85;17.92;;;10.20;99.90;;;;;;1914345;72;21109;-81
2021/11/14 09:59:33;;;;;;;33.53;17.92;;;10.20;99.90;;;;;;1902237;73;21069;-81
2021/11/14 10:02:01;;;;;;;35.10;19.10;;;10.20;99.90;;;;;;1926083;72;21524;-82
2021/11/14 10:04:28;;;;;;;33.42;18.35;;;10.20;99.90;;;;;;1913649;73;21209;-81
2021/11/14 10:06:54;;;;;;;33.25;18.23;;;10.30;99.90;;;;;;1923758;72;21074;-80
2021/11/14 10:09:25;;;;;;;31.27;17.50;;;10.40;99.90;;;;;;1924465;73;21144;-82
2021/11/14 10:11:48;;;;;;;27.20;17.23;;;10.30;99.90;;;;;;1937084;73;21076;-81
2021/11/14 10:14:14;;;;;;;29.23;17.85;;;10.40;99.90;;;;;;1917668;73;21147;-79
2021/11/14 10:16:46;;;;;;;26.00;17.37;;;10.30;99.90;;;;;;1922063;73;21066;-86
2021/11/14 10:19:13;;;;;;;28.32;16.80;;;10.30;99.90;;;;;;1924627;73;21043;-79
2021/11/14 10:21:39;;;;;;;26.20;17.12;;;10.40;99.90;;;;;;1911232;73;21497;-77
2021/11/14 10:24:05;;;;;;;25.00;15.38;;;10.60;99.90;;;;;;1927166;73;21498;-78
2021/11/14 10:26:31;;;;;;;25.15;15.10;;;10.60;99.90;;;;;;1916211;73;21477;-79
2021/11/14 10:28:57;;;;;;;27.02;16.40;;;10.70;99.90;;;;;;1926423;72;21544;-81
2021/11/14 10:31:23;;;;;;;22.13;14.47;;;10.70;99.90;;;;;;1915536;74;21462;-83
2021/11/14 10:33:49;;;;;;;22.98;14.40;;;10.80;99.90;;;;;;1912513;73;21451;-84
2021/11/14 10:36:17;;;;;;;22.82;15.25;;;10.80;99.90;;;;;;1919211;72;21066;-80
2021/11/14 10:38:43;;;;;;;21.35;14.63;;;10.70;99.90;;;;;;1930003;72;21086;-84
2021/11/14 10:41:09;;;;;;;27.52;16.05;;;10.60;99.90;;;;;;1930551;73;21139;-75
2021/11/14 10:43:38;;;;;;;22.62;14.28;;;10.70;99.90;;;;;;1934301;72;21236;-75
2021/11/14 10:46:03;;;;;;;23.22;14.60;;;10.80;99.90;;;;;;1925756;73;21186;-79
2021/11/14 10:48:29;;;;;;;22.17;14.60;;;10.70;99.90;;;;;;1936543;73;21125;-80
2021/11/14 10:50:57;;;;;;;31.95;16.42;;;10.80;99.90;;;;;;1917868;73;21082;-80
2021/11/14 10:53:23;;;;;;;23.83;15.48;;;10.80;99.90;;;;;;1934053;73;21216;-79
2021/11/14 10:55:49;;;;;;;25.10;14.50;;;10.80;99.90;;;;;;1919877;73;21205;-79
2021/11/14 10:58:16;;;;;;;21.55;14.13;;;11.00;99.90;;;;;;1915928;73;21133;-79
2021/11/14 11:00:42;;;;;;;22.70;13.95;;;10.80;99.90;;;;;;1930529;73;21066;-78
2021/11/14 11:03:08;;;;;;;19.35;13.95;;;10.80;99.90;;;;;;1926708;72;21054;-78
2021/11/14 11:05:34;;;;;;;21.20;13.43;;;10.80;99.90;;;;;;1920036;73;21067;-78
2021/11/14 11:08:00;;;;;;;22.32;14.20;;;10.90;99.90;;;;;;1920916;72;21082;-77
2021/11/14 11:10:29;;;;;;;24.50;14.25;;;10.70;99.90;;;;;;1919611;73;21108;-86
2021/11/14 11:12:55;;;;;;;18.48;13.28;;;10.70;99.90;;;;;;1926920;73;21047;-80
2021/11/14 11:15:21;;;;;;;21.48;13.05;;;10.80;99.90;;;;;;1917808;73;21145;-78
2021/11/14 11:17:48;;;;;;;18.62;13.50;;;10.80;99.90;;;;;;1923483;72;21081;-80
2021/11/14 11:20:14;;;;;;;20.43;13.20;;;11.00;99.90;;;;;;1917920;72;21329;-81
2021/11/14 11:22:40;;;;;;;22.25;13.03;;;10.90;99.90;;;;;;1923134;73;21434;-84
2021/11/14 11:25:07;;;;;;;21.00;13.75;;;10.90;99.90;;;;;;1923888;73;21535;-82
2021/11/14 11:27:34;;;;;;;16.37;11.93;;;10.90;99.90;;;;;;1933515;72;21086;-84
2021/11/14 11:30:03;;;;;;;19.75;12.75;;;11.00;99.90;;;;;;1923639;72;21155;-83
2021/11/14 11:32:29;;;;;;;20.48;12.73;;;10.90;99.90;;;;;;1928138;73;21067;-82
2021/11/14 11:34:57;;;;;;;17.60;11.60;;;10.90;99.90;;;;;;1925445;73;21156;-84
2021/11/14 11:37:23;;;;;;;17.77;12.95;;;10.90;99.90;;;;;;1930471;73;21568;-83
2021/11/14 11:39:49;;;;;;;16.90;12.88;;;10.90;99.90;;;;;;1928992;73;21487;-83
2021/11/14 11:42:16;;;;;;;16.87;11.93;;;11.00;99.90;;;;;;1915594;73;21062;-82
2021/11/14 11:44:42;;;;;;;16.85;11.50;;;11.00;99.90;;;;;;1910640;73;21171;-82
2021/11/14 11:47:08;;;;;;;16.37;11.25;;;11.10;99.90;;;;;;1927423;73;21213;-81
2021/11/14 11:49:34;;;;;;;20.25;12.23;;;11.20;99.90;;;;;;1928881;72;21199;-83
2021/11/14 11:52:02;;;;;;;18.30;11.33;;;11.20;99.90;;;;;;1919990;73;21074;-85
2021/11/14 11:54:28;;;;;;;16.73;10.82;;;11.20;99.90;;;;;;1940788;73;21199;-85
2021/11/14 11:56:54;;;;;;;14.75;11.03;;;11.40;99.90;;;;;;1931734;73;21058;-84
2021/11/14 11:59:20;;;;;;;13.15;9.88;;;11.30;99.90;;;;;;1934755;72;21153;-85
2021/11/14 12:01:47;;;;;;;19.17;10.93;;;11.40;99.90;;;;;;1927767;73;21083;-83
2021/11/14 12:04:13;;;;;;;16.40;10.32;;;11.20;99.90;;;;;;1930235;73;21687;-83
2021/11/14 12:06:39;;;;;;;15.50;10.82;;;11.20;99.90;;;;;;1928003;73;21474;-84
2021/11/14 12:09:06;;;;;;;15.10;10.85;;;11.30;99.90;;;;;;1923036;73;21466;-83
2021/11/14 12:11:32;;;;;;;18.02;11.68;;;11.40;99.90;;;;;;1933847;72;21482;-85
2021/11/14 12:13:58;;;;;;;19.07;11.43;;;11.50;99.90;;;;;;1911364;73;21559;-85
2021/11/14 12:16:24;;;;;;;14.80;10.45;;;11.40;99.90;;;;;;1931727;73;21588;-84
2021/11/14 12:18:50;;;;;;;16.82;11.60;;;11.70;99.90;;;;;;1931484;72;21568;-83
2021/11/14 12:21:16;;;;;;;14.83;11.33;;;11.60;99.90;;;;;;1937312;72;21128;-84
2021/11/14 12:23:42;;;;;;;18.57;11.05;;;11.50;99.90;;;;;;1936450;73;21281;-85
2021/11/14 12:26:09;;;;;;;14.75;10.53;;;11.40;99.90;;;;;;1929246;73;21117;-86
2021/11/14 12:28:37;;;;;;;16.75;11.30;;;11.20;99.90;;;;;;1920176;73;21568;-85
2021/11/14 12:31:09;;;;;;;20.02;11.70;;;11.10;99.90;;;;;;1921285;73;21457;-86